Ana Sayfa
METAR-TAF:

METAR-TAF

Havaalanları :

McAlester, Oklahoma, Amerika Birleşik Devletleri

Enlem: 34-52-56N, Boylam: 095-46-59W, yükseklik: 234 m

Güncel hava durumu gözlemi

Rapor saat 08:53 UTC de 49 dakika önce yapıldı.
Rüzgar kuzey/kuzeydoğudan 7 kt
Sıcaklık 7°C
Nem 93%
Basınç 1018 hPa
Görüş mesafesi: 1.6 km
200 ft yükseklikte çok bulutlu
Pus

METAR: KMLC 050853Z AUTO 02007KT 1SM BR OVC002 07/06 A3007 RMK AO2 SLP183 T00670056 58004

Saat: 04:42 (09:42 UTC)

Tahmin

Rapor saat 05:33 UTC de 4 saat ve 9 dakika önce yapıldı.
Ayın 05'si saat 06 UTC'den ayın 06'si saat 06 UTC'ye kadar geçerli Tahmin
Rüzgar kuzeydan 3 kt
Görüş mesafesi: 4.8 km
400 ft yükseklikte çok bulutlu
Pus
Ayın 05'si saat 1600 UTC'den
Rüzgar güney/güneydoğudan 6 kt
Görüş mesafesi: 10 km
1500 ft yükseklikte çok bulutlu

TAF: KMLC 050533Z 0506/0606 35003KT 3SM BR OVC004 FM051600 16006KT P6SM OVC015

4.000'den fazla havaalanı için hava durumu gözlemleri ve tahminleri (METAR ve TAF raporları).

Kullanılabilir istasyonlar harita üzerinde sarı ve kırmızı noktalarla gösterilir.

İstasyonun adını görmek için fareyi noktanın üzerinde gezdirin.

Sonrasında hava gözlem ve tahminlerini görmek için tıklayın.

Haritayı değiştirmek için: yaklaştırmak için siyah artı işaretli yeşil düğmeye ve uzaklaştırmak için de eksi işaretli düğmeye hızla tıklayın; bitişik haritalar için yeşil okları kullanın.


METAR-TAF: